Quetta Weather



Quetta's Current Weather

Temprature 22.12o clear sky

clear sky

Rain: 0 %

Min Temprature22.12o
Max Temprature22.12o
Humidity30
Wind Speed1.14 m/h
Sun Rise06:22:14
Sun Set18:24:34
Current Time: 26-Sep-2022 09:13:14
Lat/Lon: 30.199, 67.0097




Quetta's Geo Location



Quetta's Weather Forecast

Time Overall Temp Min Temp Max Temp Humidity Wind Speed Rain
26-Sep-2022 (Mon)
11:00:00 clear sky 21.860 21.860 24.750 33 1.04 m/h 0 %
14:00:00 clear sky 24.630 24.630 26.740 22 1.67 m/h 0 %
17:00:00 clear sky 26.740 26.740 26.740 11 3.04 m/h 0 %
20:00:00 clear sky 23.300 23.300 23.300 20 1.46 m/h 0 %
23:00:00 clear sky 21.220 21.220 21.220 28 1.49 m/h 0 %
27-Sep-2022 (Tue)
02:00:00 clear sky 19.220 19.220 19.220 34 0.66 m/h 0 %
05:00:00 clear sky 18.050 18.050 18.050 27 0.61 m/h 0 %
08:00:00 clear sky 21.220 21.220 21.220 17 0.67 m/h 0 %
11:00:00 clear sky 24.640 24.640 24.640 9 2.17 m/h 0 %
14:00:00 clear sky 26.440 26.440 26.440 8 3.23 m/h 0 %
17:00:00 clear sky 25.850 25.850 25.850 9 4.36 m/h 0 %
20:00:00 clear sky 22.350 22.350 22.350 16 1.56 m/h 0 %
23:00:00 clear sky 20.490 20.490 20.490 18 0.45 m/h 0 %
28-Sep-2022 (Wed)
02:00:00 clear sky 18.880 18.880 18.880 20 0.76 m/h 0 %
05:00:00 clear sky 17.540 17.540 17.540 22 0.37 m/h 0 %
08:00:00 clear sky 20.640 20.640 20.640 17 0.41 m/h 0 %
11:00:00 clear sky 24.150 24.150 24.150 15 1.51 m/h 0 %
14:00:00 clear sky 26.160 26.160 26.160 12 1.82 m/h 0 %
17:00:00 clear sky 26.190 26.190 26.190 12 2.74 m/h 0 %
20:00:00 clear sky 22.730 22.730 22.730 21 1.35 m/h 0 %
23:00:00 clear sky 20.830 20.830 20.830 26 0.94 m/h 0 %
29-Sep-2022 (Thu)
02:00:00 clear sky 19.160 19.160 19.160 32 1.31 m/h 0 %
05:00:00 clear sky 17.720 17.720 17.720 36 1.08 m/h 0 %
08:00:00 clear sky 20.600 20.600 20.600 27 0.69 m/h 0 %
11:00:00 clear sky 24.270 24.270 24.270 14 1.03 m/h 0 %
14:00:00 clear sky 26.360 26.360 26.360 11 1.15 m/h 0 %
17:00:00 clear sky 26.260 26.260 26.260 14 0.8 m/h 0 %
20:00:00 clear sky 22.900 22.900 22.900 30 1.54 m/h 0 %
23:00:00 clear sky 20.730 20.730 20.730 45 1.71 m/h 0 %
30-Sep-2022 (Fri)
02:00:00 clear sky 19.110 19.110 19.110 51 1.33 m/h 0 %
05:00:00 clear sky 17.740 17.740 17.740 48 0.79 m/h 0 %
08:00:00 clear sky 20.640 20.640 20.640 32 0.48 m/h 0 %
11:00:00 clear sky 24.520 24.520 24.520 15 1.37 m/h 0 %
14:00:00 clear sky 26.440 26.440 26.440 12 1.85 m/h 0 %
17:00:00 clear sky 26.430 26.430 26.430 12 2.39 m/h 0 %
20:00:00 clear sky 23.340 23.340 23.340 20 1 m/h 0 %
23:00:00 clear sky 21.110 21.110 21.110 26 1.06 m/h 0 %
01-Oct-2022 (Sat)
02:00:00 clear sky 19.420 19.420 19.420 27 0.54 m/h 0 %
05:00:00 clear sky 18.160 18.160 18.160 24 0.33 m/h 0 %
08:00:00 clear sky 21.350 21.350 21.350 18 0.2 m/h 0 %

Famous Cities (61)